Time;durP1;ratioP1;P1;durP2;ratioP2;P2;SDS_P1;SDS_P2;PMS_P1;PMS_P2;Temp;Humidity;BMP_temperature;BMP_pressure;BME280_temperature;BME280_humidity;BME280_pressure;Samples;Min_cycle;Max_cycle;Signal;HPM_P1;HPM_P2
2023/08/20 05:17:23;;;;;;;;;;;;;;;;;;3318861;26;20304;-44
2023/08/20 05:19:49;;;;;;;;;;;;;;;;;;4971866;28;19918;-43
2023/08/20 05:22:15;;;;;;;;;;;;;;;;;;4972431;28;19906;-41
2023/08/20 05:24:41;;;;;;;;;;;;;;;;;;4971236;28;20393;-41
2023/08/20 05:27:07;;;;;;;;;;;;;;;;;;4971450;28;19914;-42
2023/08/20 05:29:33;;;;;;;;;;;;;;;;;;4971937;28;20677;-42
2023/08/20 05:31:59;;;;;;;;;;;;;;;;;;4972030;28;19906;-42
2023/08/20 05:34:25;;;;;;;;;;;;;;;;;;4971617;28;20340;-41
2023/08/20 05:36:51;;;;;;;;;;;;;;;;;;4971357;28;20431;-42
2023/08/20 05:39:16;;;;;;;;;;;;;;;;;;4972003;28;19913;-42
2023/08/20 05:41:42;;;;;;;;;;;;;;;;;;4971886;28;19917;-43
2023/08/20 05:44:08;;;;;;;;;;;;;;;;;;4971747;28;20000;-42
2023/08/20 05:46:34;;;;;;;;;;;;;;;;;;4975629;28;19916;-43
2023/08/20 05:49:00;;;;;;;;;;;;;;;;;;4989669;28;19933;-42
2023/08/20 05:51:26;;;;;;;;;;;;;;;;;;4992481;28;19916;-43
2023/08/20 05:53:52;;;;;;;;;;;;;;;;;;4991896;28;19921;-42
2023/08/20 05:56:18;;;;;;;;;;;;;;;;;;4983292;28;19952;-42
2023/08/20 05:58:44;;;;;;;;;;;;;;;;;;4971150;28;20290;-43
2023/08/20 06:01:09;;;;;;;;;;;;;;;;;;4970971;28;19910;-43
2023/08/20 06:03:35;;;;;;;;;;;;;;;;;;4971795;28;20179;-43
2023/08/20 06:06:02;;;;;;;;;;;;;;;;;;4970876;28;20289;-44
2023/08/20 06:08:28;;;;;;;;;;;;;;;;;;4971407;28;19910;-44
2023/08/20 06:10:54;;;;;;;;;;;;;;;;;;4970777;28;19917;-43
2023/08/20 06:13:20;;;;;;;;;;;;;;;;;;4971140;28;19914;-43
2023/08/20 06:15:45;;;;;;;;;;;;;;;;;;4971281;28;19949;-43
2023/08/20 06:18:11;;;;;;;;;;;;;;;;;;4970762;28;19918;-43
2023/08/20 06:20:37;;;;;;;;;;;;;;;;;;4969453;28;20300;-42
2023/08/20 06:23:03;;;;;;;;;;;;;;;;;;4970913;28;20009;-42
2023/08/20 06:25:29;;;;;;;;;;;;;;;;;;4970544;28;19914;-42
2023/08/20 06:27:55;;;;;;;;;;;;;;;;;;4970183;28;20006;-43
2023/08/20 06:30:21;;;;;;;;;;;;;;;;;;4970815;28;19996;-42
2023/08/20 06:32:47;;;;;;;;;;;;;;;;;;4970775;28;19914;-42
2023/08/20 06:35:12;;;;;;;;;;;;;;;;;;4970845;28;19914;-43
2023/08/20 06:37:38;;;;;;;;;;;;;;;;;;4970690;28;20321;-42
2023/08/20 06:40:04;;;;;;;;;;;;;;;;;;4970416;28;19917;-43
2023/08/20 06:42:30;;;;;;;;;;;;;;;;;;4970619;28;19917;-44
2023/08/20 06:44:56;;;;;;;;;;;;;;;;;;4970692;28;19957;-43
2023/08/20 06:47:22;;;;;;;;;;;;;;;;;;4970527;28;19906;-43
2023/08/20 06:49:48;;;;;;;;;;;;;;;;;;4970893;28;19910;-42
2023/08/20 06:52:13;;;;;;;;;;;;;;;;;;4970543;28;19914;-43
2023/08/20 06:54:39;;;;;;;;;;;;;;;;;;4970391;28;19922;-43
2023/08/20 06:57:05;;;;;;;;;;;;;;;;;;4970469;28;19957;-42
2023/08/20 06:59:31;;;;;;;;;;;;;;;;;;4970528;28;20373;-43
2023/08/20 07:01:57;;;;;;;;;;;;;;;;;;4970222;28;19910;-44
2023/08/20 07:04:23;;;;;;;;;;;;;;;;;;4970803;28;19910;-43
2023/08/20 07:06:49;;;;;;;;;;;;;;;;;;4970686;28;20381;-42
2023/08/20 07:09:16;;;;;;;;;;;;;;;;;;4970451;28;19918;-42
2023/08/20 07:11:41;;;;;;;;;;;;;;;;;;4970335;28;19937;-42
2023/08/20 07:14:07;;;;;;;;;;;;;;;;;;4970152;28;20008;-43
2023/08/20 07:16:33;;;;;;;;;;;;;;;;;;4970353;28;19921;-43
2023/08/20 07:18:59;;;;;;;;;;;;;;;;;;4970175;28;19925;-43
2023/08/20 07:21:25;;;;;;;;;;;;;;;;;;4970330;28;19910;-42
2023/08/20 07:23:51;;;;;;;;;;;;;;;;;;4970532;28;19914;-42
2023/08/20 07:26:17;;;;;;;;;;;;;;;;;;4970503;28;19911;-41
2023/08/20 07:28:58;;;;;;;;;;;;;;;;;;4976719;28;19921;-41
2023/08/20 07:31:24;;;;;;;;;;;;;;;;;;4990031;28;19914;-41
2023/08/20 07:33:50;;;;;;;;;;;;;;;;;;4991009;28;19921;-41
2023/08/20 07:36:16;;;;;;;;;;;;;;;;;;4976933;28;19918;-41
2023/08/20 07:38:42;;;;;;;;;;;;;;;;;;4972328;28;19954;-41
2023/08/20 07:41:08;;;;;;;;;;;;;;;;;;4974718;28;19917;-41
2023/08/20 07:43:34;;;;;;;;;;;;;;;;;;4974863;28;20009;-41
2023/08/20 07:46:00;;;;;;;;;;;;;;;;;;4973702;28;20005;-41
2023/08/20 07:48:26;;;;;;;;;;;;;;;;;;4992559;28;20656;-41
2023/08/20 07:50:52;;;;;;;;;;;;;;;;;;4991281;28;19963;-42
2023/08/20 07:53:17;;;;;;;;;;;;;;;;;;4992573;28;19924;-42
2023/08/20 07:55:43;;;;;;;;;;;;;;;;;;4991550;28;19910;-42
2023/08/20 07:58:09;;;;;;;;;;;;;;;;;;4992903;28;20039;-42
2023/08/20 08:00:35;;;;;;;;;;;;;;;;;;4993919;28;19920;-43
2023/08/20 08:03:01;;;;;;;;;;;;;;;;;;4975315;28;20377;-43
2023/08/20 08:05:27;;;;;;;;;;;;;;;;;;4974512;28;19910;-42
2023/08/20 08:07:53;;;;;;;;;;;;;;;;;;4973898;28;20345;-42
2023/08/20 08:10:19;;;;;;;;;;;;;;;;;;4974540;28;19918;-43
2023/08/20 08:12:45;;;;;;;;;;;;;;;;;;4974474;28;19910;-44
2023/08/20 08:15:12;;;;;;;;;;;;;;;;;;4992637;28;19941;-44
2023/08/20 08:17:37;;;;;;;;;;;;;;;;;;4993799;28;19953;-44
2023/08/20 08:20:03;;;;;;;;;;;;;;;;;;4991539;28;19969;-42
2023/08/20 08:22:29;;;;;;;;;;;;;;;;;;4992325;28;19910;-41
2023/08/20 08:24:55;;;;;;;;;;;;;;;;;;4988027;28;19910;-42
2023/08/20 08:27:21;;;;;;;;;;;;;;;;;;4990652;28;19945;-43
2023/08/20 08:29:47;;;;;;;;;;;;;;;;;;4983597;28;19957;-42
2023/08/20 08:32:13;;;;;;;;;;;;;;;;;;4991192;28;20369;-42
2023/08/20 08:34:39;;;;;;;;;;;;;;;;;;4988403;28;20486;-41
2023/08/20 08:37:04;;;;;;;;;;;;;;;;;;4993652;28;19964;-42
2023/08/20 08:39:30;;;;;;;;;;;;;;;;;;4993263;28;19921;-42
2023/08/20 08:41:56;;;;;;;;;;;;;;;;;;4992994;28;19921;-42
2023/08/20 08:44:22;;;;;;;;;;;;;;;;;;4994549;28;19910;-42
2023/08/20 08:46:48;;;;;;;;;;;;;;;;;;4993908;28;19980;-43
2023/08/20 08:49:14;;;;;;;;;;;;;;;;;;4974524;28;19910;-43
2023/08/20 08:51:40;;;;;;;;;;;;;;;;;;4977976;28;19910;-43
2023/08/20 08:54:06;;;;;;;;;;;;;;;;;;4986844;28;19914;-43
2023/08/20 08:56:31;;;;;;;;;;;;;;;;;;4993774;28;19910;-42
2023/08/20 08:58:57;;;;;;;;;;;;;;;;;;4988711;28;19917;-42
2023/08/20 09:01:23;;;;;;;;;;;;;;;;;;4989684;28;19960;-43
2023/08/20 09:03:49;;;;;;;;;;;;;;;;;;4993807;28;19956;-43
2023/08/20 09:06:15;;;;;;;;;;;;;;;;;;4993638;28;19932;-43
2023/08/20 09:08:41;;;;;;;;;;;;;;;;;;4993298;28;19960;-43
2023/08/20 09:11:07;;;;;;;;;;;;;;;;;;4990242;28;19961;-43
2023/08/20 09:13:33;;;;;;;;;;;;;;;;;;4993559;28;19918;-43
2023/08/20 09:15:58;;;;;;;;;;;;;;;;;;4993505;28;19957;-43
2023/08/20 09:18:24;;;;;;;;;;;;;;;;;;4993300;28;19925;-43
2023/08/20 09:20:50;;;;;;;;;;;;;;;;;;4993459;28;19993;-42
2023/08/20 09:23:16;;;;;;;;;;;;;;;;;;4990743;28;20470;-43
2023/08/20 09:25:42;;;;;;;;;;;;;;;;;;4987537;28;19921;-43
2023/08/20 09:28:08;;;;;;;;;;;;;;;;;;4973640;28;19937;-43
2023/08/20 09:30:34;;;;;;;;;;;;;;;;;;4990618;28;19936;-42
2023/08/20 09:33:00;;;;;;;;;;;;;;;;;;4974014;28;19922;-43
2023/08/20 09:35:25;;;;;;;;;;;;;;;;;;4974148;28;19910;-42
2023/08/20 09:37:51;;;;;;;;;;;;;;;;;;4973852;28;20001;-42
2023/08/20 09:40:17;;;;;;;;;;;;;;;;;;4973310;28;19914;-42
2023/08/20 09:42:43;;;;;;;;;;;;;;;;;;4990288;28;19914;-42
2023/08/20 09:45:09;;;;;;;;;;;;;;;;;;4992267;28;19964;-43
2023/08/20 09:47:35;;;;;;;;;;;;;;;;;;4992136;28;19906;-42
2023/08/20 09:50:01;;;;;;;;;;;;;;;;;;4991730;28;20402;-44
2023/08/20 09:52:27;;;;;;;;;;;;;;;;;;4992234;28;19906;-46
2023/08/20 09:54:53;;;;;;;;;;;;;;;;;;4991878;28;19920;-42
2023/08/20 09:57:19;;;;;;;;;;;;;;;;;;4990884;28;19996;-46
2023/08/20 09:59:44;;;;;;;;;;;;;;;;;;4989211;28;19921;-43
2023/08/20 10:02:10;;;;;;;;;;;;;;;;;;4992186;28;20410;-44
2023/08/20 10:04:36;;;;;;;;;;;;;;;;;;4991250;28;19960;-44
2023/08/20 10:07:03;;;;;;;;;;;;;;;;;;4991815;28;19921;-42
2023/08/20 10:09:29;;;;;;;;;;;;;;;;;;4992772;28;19910;-43
2023/08/20 10:11:54;;;;;;;;;;;;;;;;;;4986079;28;19921;-42
2023/08/20 10:14:20;;;;;;;;;;;;;;;;;;4991260;28;19961;-42
2023/08/20 10:16:46;;;;;;;;;;;;;;;;;;4987761;28;19910;-42
2023/08/20 10:19:12;;;;;;;;;;;;;;;;;;4972733;28;19918;-42
2023/08/20 10:21:38;;;;;;;;;;;;;;;;;;4973084;28;20281;-43
2023/08/20 10:24:05;;;;;;;;;;;;;;;;;;4972705;28;19910;-43
2023/08/20 10:26:30;;;;;;;;;;;;;;;;;;4973161;28;20484;-44
2023/08/20 10:28:56;;;;;;;;;;;;;;;;;;4976574;28;20004;-42
2023/08/20 10:31:22;;;;;;;;;;;;;;;;;;4992138;28;19910;-43
2023/08/20 10:33:49;;;;;;;;;;;;;;;;;;4992231;28;19914;-43
2023/08/20 10:36:15;;;;;;;;;;;;;;;;;;4990898;28;19917;-43
2023/08/20 10:38:41;;;;;;;;;;;;;;;;;;4991777;28;19914;-43
2023/08/20 10:41:08;;;;;;;;;;;;;;;;;;4991648;28;19910;-43
2023/08/20 10:43:33;;;;;;;;;;;;;;;;;;4990666;28;19909;-44
2023/08/20 10:45:59;;;;;;;;;;;;;;;;;;4985765;28;19910;-43
2023/08/20 10:48:25;;;;;;;;;;;;;;;;;;4991768;28;20291;-42
2023/08/20 10:50:51;;;;;;;;;;;;;;;;;;4979482;28;19922;-42
2023/08/20 10:53:17;;;;;;;;;;;;;;;;;;4991360;28;19918;-42
2023/08/20 10:55:43;;;;;;;;;;;;;;;;;;4991579;28;19949;-43
2023/08/20 10:58:09;;;;;;;;;;;;;;;;;;4975824;28;19924;-43
2023/08/20 11:00:34;;;;;;;;;;;;;;;;;;4989584;28;19917;-43
2023/08/20 11:03:00;;;;;;;;;;;;;;;;;;4991579;28;20383;-44
2023/08/20 11:05:26;;;;;;;;;;;;;;;;;;4991980;28;20387;-44
2023/08/20 11:07:52;;;;;;;;;;;;;;;;;;4990991;28;20357;-41
2023/08/20 11:10:18;;;;;;;;;;;;;;;;;;4990963;28;19909;-41
2023/08/20 11:12:44;;;;;;;;;;;;;;;;;;4986954;28;20305;-41
2023/08/20 11:15:11;;;;;;;;;;;;;;;;;;4989544;28;20376;-41
2023/08/20 11:17:37;;;;;;;;;;;;;;;;;;4993246;28;20004;-42
2023/08/20 11:20:04;;;;;;;;;;;;;;;;;;4991077;28;19948;-40
2023/08/20 11:22:30;;;;;;;;;;;;;;;;;;4991267;28;19992;-41
2023/08/20 11:24:56;;;;;;;;;;;;;;;;;;4988679;28;19961;-41
2023/08/20 11:27:22;;;;;;;;;;;;;;;;;;4989946;28;20317;-42
2023/08/20 11:29:48;;;;;;;;;;;;;;;;;;4989384;28;19913;-41
2023/08/20 11:32:14;;;;;;;;;;;;;;;;;;4988526;28;19917;-41
2023/08/20 11:34:40;;;;;;;;;;;;;;;;;;4989353;28;19917;-41
2023/08/20 11:37:06;;;;;;;;;;;;;;;;;;4990955;28;20168;-41
2023/08/20 11:39:31;;;;;;;;;;;;;;;;;;4991475;28;19917;-41
2023/08/20 11:41:57;;;;;;;;;;;;;;;;;;4989323;28;20187;-41
2023/08/20 11:44:26;;;;;;;;;;;;;;;;;;4990249;28;19964;-41
2023/08/20 11:46:52;;;;;;;;;;;;;;;;;;4970572;28;19911;-41
2023/08/20 11:49:17;;;;;;;;;;;;;;;;;;4987272;28;19925;-41
2023/08/20 11:51:45;;;;;;;;;;;;;;;;;;4988979;28;19964;-41
2023/08/20 11:54:11;;;;;;;;;;;;;;;;;;4990170;28;20021;-42
2023/08/20 11:56:38;;;;;;;;;;;;;;;;;;4991005;28;20004;-42
2023/08/20 11:59:04;;;;;;;;;;;;;;;;;;4971387;28;19953;-41
2023/08/20 12:01:30;;;;;;;;;;;;;;;;;;4985336;28;19957;-42
2023/08/20 12:03:56;;;;;;;;;;;;;;;;;;4989028;28;19914;-46
2023/08/20 12:06:24;;;;;;;;;;;;;;;;;;4987704;28;19914;-46
2023/08/20 12:08:49;;;;;;;;;;;;;;;;;;4985066;28;19921;-43
2023/08/20 12:11:15;;;;;;;;;;;;;;;;;;4988396;28;19913;-47
2023/08/20 12:13:41;;;;;;;;;;;;;;;;;;4986369;28;19926;-45
2023/08/20 12:16:07;;;;;;;;;;;;;;;;;;4985336;28;20335;-45
2023/08/20 12:18:33;;;;;;;;;;;;;;;;;;4986674;28;19996;-44
2023/08/20 12:20:59;;;;;;;;;;;;;;;;;;4986056;28;19921;-45
2023/08/20 12:23:25;;;;;;;;;;;;;;;;;;4987513;28;19914;-43
2023/08/20 12:25:51;;;;;;;;;;;;;;;;;;4984389;28;19918;-46
2023/08/20 12:28:17;;;;;;;;;;;;;;;;;;4988799;28;19913;-43
2023/08/20 12:30:43;;;;;;;;;;;;;;;;;;4984173;28;19960;-47
2023/08/20 12:33:09;;;;;;;;;;;;;;;;;;4971379;28;19918;-45
2023/08/20 12:35:35;;;;;;;;;;;;;;;;;;4982820;28;19916;-45
2023/08/20 12:38:01;;;;;;;;;;;;;;;;;;4985551;28;19918;-43
2023/08/20 12:40:27;;;;;;;;;;;;;;;;;;4988087;28;19948;-46
2023/08/20 12:42:53;;;;;;;;;;;;;;;;;;4985593;28;19914;-45
2023/08/20 12:45:19;;;;;;;;;;;;;;;;;;4984879;28;19968;-44
2023/08/20 12:47:45;;;;;;;;;;;;;;;;;;4986019;28;19920;-45
2023/08/20 12:50:13;;;;;;;;;;;;;;;;;;4986246;28;20300;-45
2023/08/20 12:52:39;;;;;;;;;;;;;;;;;;4987984;28;19920;-48
2023/08/20 12:55:05;;;;;;;;;;;;;;;;;;4990073;28;19914;-47
2023/08/20 12:57:31;;;;;;;;;;;;;;;;;;4988572;28;20012;-45
2023/08/20 12:59:57;;;;;;;;;;;;;;;;;;4988877;28;19992;-44
2023/08/20 13:02:23;;;;;;;;;;;;;;;;;;4987888;28;19968;-45
2023/08/20 13:04:50;;;;;;;;;;;;;;;;;;4988821;28;19922;-48
2023/08/20 13:07:16;;;;;;;;;;;;;;;;;;4988672;28;20001;-47
2023/08/20 13:09:42;;;;;;;;;;;;;;;;;;4989037;28;20422;-47
2023/08/20 13:12:11;;;;;;;;;;;;;;;;;;4987397;28;20217;-45
2023/08/20 13:14:37;;;;;;;;;;;;;;;;;;4986644;28;20400;-44
2023/08/20 13:17:03;;;;;;;;;;;;;;;;;;4987653;28;19920;-45
2023/08/20 13:19:29;;;;;;;;;;;;;;;;;;4972381;28;19922;-45
2023/08/20 13:21:55;;;;;;;;;;;;;;;;;;4977031;28;20008;-45
2023/08/20 13:24:21;;;;;;;;;;;;;;;;;;4987140;28;19977;-45
2023/08/20 13:26:47;;;;;;;;;;;;;;;;;;4988208;28;19914;-45
2023/08/20 13:29:13;;;;;;;;;;;;;;;;;;4984681;28;19965;-45
2023/08/20 13:31:39;;;;;;;;;;;;;;;;;;4982567;28;19922;-44
2023/08/20 13:34:04;;;;;;;;;;;;;;;;;;4985171;28;19964;-44
2023/08/20 13:36:30;;;;;;;;;;;;;;;;;;4985613;28;19957;-45
2023/08/20 13:38:56;;;;;;;;;;;;;;;;;;4984542;28;20008;-46
2023/08/20 13:41:22;;;;;;;;;;;;;;;;;;4987093;28;19969;-45
2023/08/20 13:43:48;;;;;;;;;;;;;;;;;;4986478;28;20225;-43
2023/08/20 13:46:14;;;;;;;;;;;;;;;;;;4986545;28;20412;-43
2023/08/20 13:48:40;;;;;;;;;;;;;;;;;;4985852;28;19965;-47
2023/08/20 13:51:06;;;;;;;;;;;;;;;;;;4984978;28;19984;-46
2023/08/20 13:53:32;;;;;;;;;;;;;;;;;;4984957;28;20012;-44
2023/08/20 13:55:57;;;;;;;;;;;;;;;;;;4983443;28;19997;-47
2023/08/20 13:58:23;;;;;;;;;;;;;;;;;;4983071;28;19976;-48
2023/08/20 14:00:49;;;;;;;;;;;;;;;;;;4984177;28;19914;-45
2023/08/20 14:03:15;;;;;;;;;;;;;;;;;;4982542;28;19933;-45
2023/08/20 14:05:41;;;;;;;;;;;;;;;;;;4983242;28;19924;-46
2023/08/20 14:08:07;;;;;;;;;;;;;;;;;;4987583;28;19917;-45
2023/08/20 14:10:33;;;;;;;;;;;;;;;;;;4984219;28;19925;-46
2023/08/20 14:12:59;;;;;;;;;;;;;;;;;;4986355;28;20388;-44
2023/08/20 14:15:26;;;;;;;;;;;;;;;;;;4982403;28;20232;-45
2023/08/20 14:17:52;;;;;;;;;;;;;;;;;;4987048;28;19961;-46
2023/08/20 14:20:18;;;;;;;;;;;;;;;;;;4986520;28;19941;-45
2023/08/20 14:22:44;;;;;;;;;;;;;;;;;;4985674;28;19976;-45
2023/08/20 14:25:10;;;;;;;;;;;;;;;;;;4987503;28;19967;-44
2023/08/20 14:27:36;;;;;;;;;;;;;;;;;;4984563;28;19920;-45
2023/08/20 14:30:02;;;;;;;;;;;;;;;;;;4985890;28;19957;-44
2023/08/20 14:32:28;;;;;;;;;;;;;;;;;;4984267;28;19915;-46
2023/08/20 14:34:54;;;;;;;;;;;;;;;;;;4984623;28;19972;-44
2023/08/20 14:37:20;;;;;;;;;;;;;;;;;;4982595;28;20189;-45
2023/08/20 14:39:46;;;;;;;;;;;;;;;;;;4984397;28;19913;-44
2023/08/20 14:42:12;;;;;;;;;;;;;;;;;;4984468;28;20376;-45
2023/08/20 14:44:38;;;;;;;;;;;;;;;;;;4985125;28;19914;-46
2023/08/20 14:47:04;;;;;;;;;;;;;;;;;;4984764;28;19914;-48
2023/08/20 14:49:30;;;;;;;;;;;;;;;;;;4985265;28;19924;-45
2023/08/20 14:51:56;;;;;;;;;;;;;;;;;;4986833;28;20349;-44
2023/08/20 14:54:22;;;;;;;;;;;;;;;;;;4983874;28;20293;-46
2023/08/20 14:56:48;;;;;;;;;;;;;;;;;;4982963;28;20247;-44
2023/08/20 14:59:14;;;;;;;;;;;;;;;;;;4981869;28;19913;-44
2023/08/20 15:01:40;;;;;;;;;;;;;;;;;;4984677;28;19914;-45
2023/08/20 15:04:06;;;;;;;;;;;;;;;;;;4983615;28;19914;-44
2023/08/20 15:06:32;;;;;;;;;;;;;;;;;;4982612;28;19984;-45
2023/08/20 15:08:58;;;;;;;;;;;;;;;;;;4983962;28;19953;-47
2023/08/20 15:11:25;;;;;;;;;;;;;;;;;;4982539;28;19914;-44
2023/08/20 15:13:51;;;;;;;;;;;;;;;;;;4983164;28;20304;-44
2023/08/20 15:16:17;;;;;;;;;;;;;;;;;;4983576;28;19914;-48
2023/08/20 15:18:43;;;;;;;;;;;;;;;;;;4984322;28;19918;-48
2023/08/20 15:21:10;;;;;;;;;;;;;;;;;;4985663;28;20155;-46
2023/08/20 15:23:37;;;;;;;;;;;;;;;;;;4984209;28;19921;-45
2023/08/20 15:26:03;;;;;;;;;;;;;;;;;;4984534;28;19961;-45
2023/08/20 15:28:29;;;;;;;;;;;;;;;;;;4985600;28;19953;-45
2023/08/20 15:30:55;;;;;;;;;;;;;;;;;;4986615;28;19910;-45
2023/08/20 15:33:21;;;;;;;;;;;;;;;;;;4984867;28;19975;-47
2023/08/20 15:35:47;;;;;;;;;;;;;;;;;;4986052;28;20395;-44
2023/08/20 15:38:13;;;;;;;;;;;;;;;;;;4986734;28;19918;-48
2023/08/20 15:40:39;;;;;;;;;;;;;;;;;;4985864;28;19910;-45
2023/08/20 15:43:05;;;;;;;;;;;;;;;;;;4986161;28;20296;-46
2023/08/20 15:45:31;;;;;;;;;;;;;;;;;;4983279;28;19927;-44
2023/08/20 15:47:56;;;;;;;;;;;;;;;;;;4983495;28;19969;-48
2023/08/20 15:50:22;;;;;;;;;;;;;;;;;;4983693;28;19950;-45
2023/08/20 15:52:48;;;;;;;;;;;;;;;;;;4978838;28;19914;-44
2023/08/20 15:55:14;;;;;;;;;;;;;;;;;;4985169;28;20049;-45
2023/08/20 15:57:40;;;;;;;;;;;;;;;;;;4983096;28;20460;-45
2023/08/20 16:00:14;;;;;;;;;;;;;;;;;;4985538;28;20224;-43
2023/08/20 16:02:40;;;;;;;;;;;;;;;;;;4982496;28;19925;-45
2023/08/20 16:05:06;;;;;;;;;;;;;;;;;;4987194;28;20486;-45
2023/08/20 16:07:32;;;;;;;;;;;;;;;;;;4987610;28;20384;-44
2023/08/20 16:09:58;;;;;;;;;;;;;;;;;;4986642;28;19992;-46
2023/08/20 16:12:23;;;;;;;;;;;;;;;;;;4984719;28;19992;-45
2023/08/20 16:14:49;;;;;;;;;;;;;;;;;;4987612;28;19917;-45
2023/08/20 16:17:15;;;;;;;;;;;;;;;;;;4986512;28;20460;-44
2023/08/20 16:19:41;;;;;;;;;;;;;;;;;;4986328;28;19926;-47
2023/08/20 16:22:07;;;;;;;;;;;;;;;;;;4987939;28;19957;-46
2023/08/20 16:24:33;;;;;;;;;;;;;;;;;;4985759;28;20335;-48
2023/08/20 16:26:59;;;;;;;;;;;;;;;;;;4987501;28;19921;-45
2023/08/20 16:29:25;;;;;;;;;;;;;;;;;;4987220;28;20411;-44
2023/08/20 16:31:50;;;;;;;;;;;;;;;;;;4986729;28;19948;-45
2023/08/20 16:34:16;;;;;;;;;;;;;;;;;;4986903;28;20356;-44
2023/08/20 16:36:42;;;;;;;;;;;;;;;;;;4985837;28;19913;-44
2023/08/20 16:39:08;;;;;;;;;;;;;;;;;;4987177;28;20308;-45
2023/08/20 16:41:34;;;;;;;;;;;;;;;;;;4985422;28;19914;-45
2023/08/20 16:44:00;;;;;;;;;;;;;;;;;;4976455;28;19913;-44
2023/08/20 16:46:26;;;;;;;;;;;;;;;;;;4985897;28;20424;-47
2023/08/20 16:48:52;;;;;;;;;;;;;;;;;;4988288;28;19949;-45
2023/08/20 16:51:18;;;;;;;;;;;;;;;;;;4985809;28;19992;-49
2023/08/20 16:53:44;;;;;;;;;;;;;;;;;;4986834;28;20482;-45
2023/08/20 16:56:10;;;;;;;;;;;;;;;;;;4987626;28;20004;-48
2023/08/20 16:58:36;;;;;;;;;;;;;;;;;;4985867;28;20000;-47
2023/08/20 17:01:04;;;;;;;;;;;;;;;;;;4986474;28;19914;-45
2023/08/20 17:03:30;;;;;;;;;;;;;;;;;;4984853;28;19918;-47
2023/08/20 17:05:55;;;;;;;;;;;;;;;;;;4986435;28;19963;-46
2023/08/20 17:08:21;;;;;;;;;;;;;;;;;;4987774;28;19921;-49
2023/08/20 17:10:47;;;;;;;;;;;;;;;;;;4986260;28;19984;-46
2023/08/20 17:13:13;;;;;;;;;;;;;;;;;;4985891;28;19928;-49
2023/08/20 17:15:39;;;;;;;;;;;;;;;;;;4987733;28;20292;-45
2023/08/20 17:18:05;;;;;;;;;;;;;;;;;;4984542;28;19937;-47
2023/08/20 17:20:31;;;;;;;;;;;;;;;;;;4985521;28;20100;-46
2023/08/20 17:22:57;;;;;;;;;;;;;;;;;;4983893;28;19913;-45
2023/08/20 17:25:23;;;;;;;;;;;;;;;;;;4986416;28;20437;-48
2023/08/20 17:27:48;;;;;;;;;;;;;;;;;;4984980;28;19918;-44
2023/08/20 17:30:14;;;;;;;;;;;;;;;;;;4986591;28;19957;-46
2023/08/20 17:32:40;;;;;;;;;;;;;;;;;;4987135;28;19918;-46
2023/08/20 17:35:08;;;;;;;;;;;;;;;;;;4986653;28;19953;-47
2023/08/20 17:37:34;;;;;;;;;;;;;;;;;;4988398;28;19909;-46
2023/08/20 17:40:00;;;;;;;;;;;;;;;;;;4987360;28;20376;-48
2023/08/20 17:42:25;;;;;;;;;;;;;;;;;;4985659;28;19914;-43
2023/08/20 17:44:51;;;;;;;;;;;;;;;;;;4983255;28;19914;-45
2023/08/20 17:47:17;;;;;;;;;;;;;;;;;;4985600;28;19914;-48
2023/08/20 17:49:43;;;;;;;;;;;;;;;;;;4983655;28;19917;-46
2023/08/20 17:52:09;;;;;;;;;;;;;;;;;;4988860;28;19910;-46
2023/08/20 17:54:35;;;;;;;;;;;;;;;;;;4985649;28;19980;-47
2023/08/20 17:57:01;;;;;;;;;;;;;;;;;;4984347;28;20013;-45
2023/08/20 17:59:27;;;;;;;;;;;;;;;;;;4985296;28;20017;-47
2023/08/20 18:01:53;;;;;;;;;;;;;;;;;;4987710;28;20362;-44
2023/08/20 18:04:19;;;;;;;;;;;;;;;;;;4987815;28;19965;-46
2023/08/20 18:06:44;;;;;;;;;;;;;;;;;;4987517;28;20419;-45
2023/08/20 18:09:10;;;;;;;;;;;;;;;;;;4984267;28;19968;-48
2023/08/20 18:11:36;;;;;;;;;;;;;;;;;;4985357;28;20385;-47
2023/08/20 18:14:02;;;;;;;;;;;;;;;;;;4987646;28;19913;-44
2023/08/20 18:16:28;;;;;;;;;;;;;;;;;;4987385;28;19940;-47
2023/08/20 18:18:54;;;;;;;;;;;;;;;;;;4982453;28;19918;-47
2023/08/20 18:21:20;;;;;;;;;;;;;;;;;;4982784;28;19921;-47
2023/08/20 18:23:46;;;;;;;;;;;;;;;;;;4983266;28;20407;-45
2023/08/20 18:26:12;;;;;;;;;;;;;;;;;;4984637;28;19960;-47
2023/08/20 18:28:38;;;;;;;;;;;;;;;;;;4983860;28;19921;-45
2023/08/20 18:31:03;;;;;;;;;;;;;;;;;;4983936;28;19914;-45
2023/08/20 18:33:29;;;;;;;;;;;;;;;;;;4985788;28;20376;-44
2023/08/20 18:35:55;;;;;;;;;;;;;;;;;;4987481;28;19910;-45
2023/08/20 18:38:21;;;;;;;;;;;;;;;;;;4987622;28;19909;-45
2023/08/20 18:40:47;;;;;;;;;;;;;;;;;;4985293;28;19918;-46
2023/08/20 18:43:13;;;;;;;;;;;;;;;;;;4985758;28;19984;-44
2023/08/20 18:45:39;;;;;;;;;;;;;;;;;;4987328;28;19914;-48
2023/08/20 18:48:05;;;;;;;;;;;;;;;;;;4984977;28;19920;-46
2023/08/20 18:50:31;;;;;;;;;;;;;;;;;;4982097;28;20020;-46
2023/08/20 18:52:56;;;;;;;;;;;;;;;;;;4984975;28;19961;-44
2023/08/20 18:55:22;;;;;;;;;;;;;;;;;;4984854;28;19924;-45
2023/08/20 18:57:48;;;;;;;;;;;;;;;;;;4983790;28;19918;-45
2023/08/20 19:00:14;;;;;;;;;;;;;;;;;;4983248;28;19922;-46
2023/08/20 19:02:40;;;;;;;;;;;;;;;;;;4986047;28;20108;-48
2023/08/20 19:05:06;;;;;;;;;;;;;;;;;;4984250;28;19921;-44
2023/08/20 19:07:32;;;;;;;;;;;;;;;;;;4986016;28;20407;-47
2023/08/20 19:09:58;;;;;;;;;;;;;;;;;;4983873;28;19914;-44
2023/08/20 19:12:24;;;;;;;;;;;;;;;;;;4986359;28;19914;-46
2023/08/20 19:14:50;;;;;;;;;;;;;;;;;;4984834;28;19961;-45
2023/08/20 19:17:16;;;;;;;;;;;;;;;;;;4983966;28;19922;-46
2023/08/20 19:19:42;;;;;;;;;;;;;;;;;;4981728;28;20418;-46
2023/08/20 19:22:08;;;;;;;;;;;;;;;;;;4980518;28;19992;-45
2023/08/20 19:24:34;;;;;;;;;;;;;;;;;;4979559;28;20370;-45
2023/08/20 19:26:59;;;;;;;;;;;;;;;;;;4980358;28;20238;-45
2023/08/20 19:29:25;;;;;;;;;;;;;;;;;;4981837;28;19940;-46
2023/08/20 19:31:51;;;;;;;;;;;;;;;;;;4980998;28;19961;-43
2023/08/20 19:34:17;;;;;;;;;;;;;;;;;;4983546;28;20166;-47
2023/08/20 19:36:43;;;;;;;;;;;;;;;;;;4982059;28;19917;-44
2023/08/20 19:39:09;;;;;;;;;;;;;;;;;;4982956;28;20406;-44
2023/08/20 19:41:35;;;;;;;;;;;;;;;;;;4987031;28;20604;-45
2023/08/20 19:44:01;;;;;;;;;;;;;;;;;;4984870;28;19918;-47
2023/08/20 19:46:27;;;;;;;;;;;;;;;;;;4983971;28;20304;-44
2023/08/20 19:48:53;;;;;;;;;;;;;;;;;;4983600;28;19922;-45
2023/08/20 19:51:19;;;;;;;;;;;;;;;;;;4985325;28;20006;-46
2023/08/20 19:53:45;;;;;;;;;;;;;;;;;;4986883;28;19977;-45
2023/08/20 19:56:11;;;;;;;;;;;;;;;;;;4986830;28;19936;-46
2023/08/20 19:58:37;;;;;;;;;;;;;;;;;;4986307;28;20008;-45
2023/08/20 20:01:03;;;;;;;;;;;;;;;;;;4983619;28;20063;-46
2023/08/20 20:03:29;;;;;;;;;;;;;;;;;;4983574;28;19924;-47
2023/08/20 20:05:55;;;;;;;;;;;;;;;;;;4983490;28;19921;-44
2023/08/20 20:08:20;;;;;;;;;;;;;;;;;;4983488;28;19926;-48
2023/08/20 20:10:46;;;;;;;;;;;;;;;;;;4985772;28;21027;-45
2023/08/20 20:13:12;;;;;;;;;;;;;;;;;;4988783;28;19935;-44
2023/08/20 20:15:38;;;;;;;;;;;;;;;;;;4988130;28;20081;-45
2023/08/20 20:18:04;;;;;;;;;;;;;;;;;;4988454;28;19943;-43
2023/08/20 20:20:32;;;;;;;;;;;;;;;;;;4990035;28;19916;-45
2023/08/20 20:22:58;;;;;;;;;;;;;;;;;;4980575;28;19917;-44
2023/08/20 20:25:24;;;;;;;;;;;;;;;;;;4984577;28;19968;-46
2023/08/20 20:27:49;;;;;;;;;;;;;;;;;;4982668;28;19964;-45
2023/08/20 20:30:15;;;;;;;;;;;;;;;;;;4983083;28;19918;-47
2023/08/20 20:32:41;;;;;;;;;;;;;;;;;;4983212;28;19918;-44
2023/08/20 20:35:08;;;;;;;;;;;;;;;;;;4984352;28;20157;-47
2023/08/20 20:37:34;;;;;;;;;;;;;;;;;;4985606;28;20385;-43
2023/08/20 20:40:01;;;;;;;;;;;;;;;;;;4984518;28;20070;-45
2023/08/20 20:42:27;;;;;;;;;;;;;;;;;;4987460;28;19917;-43
2023/08/20 20:44:53;;;;;;;;;;;;;;;;;;4987166;28;20351;-44
2023/08/20 20:47:19;;;;;;;;;;;;;;;;;;4986590;28;20308;-48
2023/08/20 20:49:45;;;;;;;;;;;;;;;;;;4988581;28;19922;-45
2023/08/20 20:52:11;;;;;;;;;;;;;;;;;;4985187;28;19925;-44
2023/08/20 20:54:37;;;;;;;;;;;;;;;;;;4985914;28;19925;-44
2023/08/20 20:57:03;;;;;;;;;;;;;;;;;;4984609;28;19924;-44
2023/08/20 20:59:29;;;;;;;;;;;;;;;;;;4984576;28;20012;-46
2023/08/20 21:01:56;;;;;;;;;;;;;;;;;;4983745;28;20012;-44
2023/08/20 21:04:22;;;;;;;;;;;;;;;;;;4986417;28;19920;-47
2023/08/20 21:06:48;;;;;;;;;;;;;;;;;;4982706;28;19922;-44
2023/08/20 21:09:14;;;;;;;;;;;;;;;;;;4978430;28;19921;-45
2023/08/20 21:11:40;;;;;;;;;;;;;;;;;;4984284;28;19980;-44
2023/08/20 21:14:06;;;;;;;;;;;;;;;;;;4987377;28;19918;-45
2023/08/20 21:16:32;;;;;;;;;;;;;;;;;;4988507;28;20345;-45
2023/08/20 21:18:58;;;;;;;;;;;;;;;;;;4988535;28;19917;-44
2023/08/20 21:21:24;;;;;;;;;;;;;;;;;;4989870;28;20423;-45
2023/08/20 21:23:55;;;;;;;;;;;;;;;;;;4989716;28;20000;-47
2023/08/20 21:26:21;;;;;;;;;;;;;;;;;;4989798;28;20355;-44
2023/08/20 21:28:46;;;;;;;;;;;;;;;;;;4989277;28;19910;-45
2023/08/20 21:31:13;;;;;;;;;;;;;;;;;;4989770;28;19921;-44
2023/08/20 21:33:39;;;;;;;;;;;;;;;;;;4989431;28;19914;-45
2023/08/20 21:36:04;;;;;;;;;;;;;;;;;;4990204;28;20288;-44
2023/08/20 21:38:30;;;;;;;;;;;;;;;;;;4990103;28;19937;-44
2023/08/20 21:40:56;;;;;;;;;;;;;;;;;;4989344;28;20377;-45
2023/08/20 21:43:22;;;;;;;;;;;;;;;;;;4989180;28;19996;-43
2023/08/20 21:45:48;;;;;;;;;;;;;;;;;;4988000;28;19909;-43
2023/08/20 21:48:14;;;;;;;;;;;;;;;;;;4989250;28;19916;-45
2023/08/20 21:50:40;;;;;;;;;;;;;;;;;;4989335;28;20377;-44
2023/08/20 21:53:06;;;;;;;;;;;;;;;;;;4989296;28;19992;-43